Time;durP1;ratioP1;P1;durP2;ratioP2;P2;SDS_P1;SDS_P2;PMS_P1;PMS_P2;Temp;Humidity;BMP_temperature;BMP_pressure;BME280_temperature;BME280_humidity;BME280_pressure;Samples;Min_cycle;Max_cycle;Signal;HPM_P1;HPM_P2
2021/01/15 00:00:43;;;;;;;36.20;19.05;;;-3.80;99.90;;;;;;4998294;28;20030;-76
2021/01/15 00:03:09;;;;;;;52.85;23.38;;;-3.90;99.90;;;;;;4998255;28;20117;-76
2021/01/15 00:05:38;;;;;;;23.92;11.60;;;-3.90;99.90;;;;;;4998452;28;20018;-77
2021/01/15 00:08:05;;;;;;;33.03;15.20;;;-3.90;99.90;;;;;;4999578;28;20038;-76
2021/01/15 00:10:31;;;;;;;18.83;9.60;;;-3.90;99.90;;;;;;4999406;28;20428;-76
2021/01/15 00:12:56;;;;;;;16.15;9.18;;;-4.00;99.90;;;;;;4998050;28;20061;-76
2021/01/15 00:15:22;;;;;;;17.70;8.55;;;-4.00;99.90;;;;;;4999136;28;20407;-77
2021/01/15 00:17:48;;;;;;;18.02;9.73;;;-4.00;99.90;;;;;;4999153;28;20472;-77
2021/01/15 00:20:13;;;;;;;16.50;8.77;;;-4.00;99.90;;;;;;4995933;28;20476;-79
2021/01/15 00:22:43;;;;;;;15.38;7.93;;;-4.00;99.90;;;;;;4996249;28;20026;-78
2021/01/15 00:25:10;;;;;;;20.63;10.13;;;-4.10;99.90;;;;;;4996053;28;20030;-76
2021/01/15 00:27:37;;;;;;;23.02;8.82;;;-4.10;99.90;;;;;;4996080;28;20033;-77
2021/01/15 00:30:09;;;;;;;20.70;9.23;;;-4.10;99.90;;;;;;4995814;28;20022;-76
2021/01/15 00:32:36;;;;;;;16.75;9.73;;;-4.20;99.90;;;;;;4996048;28;20026;-76
2021/01/15 00:35:06;;;;;;;18.13;9.13;;;-4.20;99.90;;;;;;4995790;28;20061;-77
2021/01/15 00:37:32;;;;;;;15.27;7.90;;;-4.20;99.90;;;;;;4995845;28;20028;-77
2021/01/15 00:39:58;;;;;;;15.27;8.27;;;-4.30;99.90;;;;;;4995498;28;20391;-76
2021/01/15 00:42:23;;;;;;;17.50;9.45;;;-4.30;99.90;;;;;;4994403;28;20023;-77
2021/01/15 00:44:49;;;;;;;14.68;8.82;;;-4.20;99.90;;;;;;4995593;28;20105;-76
2021/01/15 00:47:15;;;;;;;20.65;9.85;;;-4.20;99.90;;;;;;4995621;28;20057;-76
2021/01/15 00:49:41;;;;;;;25.05;10.43;;;-4.20;99.90;;;;;;4995566;28;20101;-77
2021/01/15 00:52:06;;;;;;;24.70;10.88;;;-4.20;99.90;;;;;;4995500;28;20022;-78
2021/01/15 00:54:32;;;;;;;25.75;11.88;;;-4.10;99.90;;;;;;4995458;28;20492;-76
2021/01/15 00:56:59;;;;;;;25.15;12.00;;;-4.10;99.90;;;;;;4995323;28;20058;-77
2021/01/15 00:59:25;;;;;;;24.45;11.25;;;-4.10;99.90;;;;;;4995391;28;20026;-76
2021/01/15 01:01:50;;;;;;;24.58;10.27;;;-4.20;99.90;;;;;;4995389;28;20027;-77
2021/01/15 01:04:16;;;;;;;21.50;11.70;;;-4.20;99.90;;;;;;4995694;28;20022;-76
2021/01/15 01:06:42;;;;;;;27.30;11.63;;;-4.20;99.90;;;;;;4995294;28;20087;-76
2021/01/15 01:09:08;;;;;;;23.40;11.10;;;-4.20;99.90;;;;;;4995115;28;20038;-76
2021/01/15 01:11:34;;;;;;;25.63;11.93;;;-4.20;99.90;;;;;;4993912;28;20121;-75
2021/01/15 01:14:01;;;;;;;27.48;11.93;;;-4.20;99.90;;;;;;4993638;28;20496;-75
2021/01/15 01:16:27;;;;;;;26.50;11.45;;;-4.20;99.90;;;;;;4994252;28;20459;-76
2021/01/15 01:18:54;;;;;;;27.38;12.48;;;-4.20;99.90;;;;;;4995141;28;20101;-75
2021/01/15 01:21:20;;;;;;;26.85;12.90;;;-4.20;99.90;;;;;;4995160;28;20026;-76
2021/01/15 01:23:46;;;;;;;29.35;12.80;;;-4.20;99.90;;;;;;4993694;28;20030;-76
2021/01/15 01:26:12;;;;;;;25.30;13.10;;;-4.20;99.90;;;;;;4995033;28;20045;-78
2021/01/15 01:28:41;;;;;;;23.08;11.60;;;-4.20;99.90;;;;;;4994722;28;20081;-76
2021/01/15 01:31:08;;;;;;;26.83;13.75;;;-4.20;99.90;;;;;;4993628;28;20022;-76
2021/01/15 01:33:33;;;;;;;24.90;12.73;;;-4.20;99.90;;;;;;4993491;28;20121;-76
2021/01/15 01:35:59;;;;;;;27.67;11.63;;;-4.20;99.90;;;;;;4994824;28;20511;-79
2021/01/15 01:38:25;;;;;;;25.40;12.40;;;-4.20;99.90;;;;;;4994692;28;20085;-77
2021/01/15 01:40:50;;;;;;;36.08;13.52;;;-4.30;99.90;;;;;;4993449;28;20034;-78
2021/01/15 01:43:16;;;;;;;28.75;13.10;;;-4.30;99.90;;;;;;4993243;28;20472;-77
2021/01/15 01:45:42;;;;;;;26.90;12.63;;;-4.30;99.90;;;;;;4994460;28;20026;-76
2021/01/15 01:48:08;;;;;;;26.05;11.80;;;-4.20;99.90;;;;;;4994521;28;20030;-76
2021/01/15 01:50:35;;;;;;;31.88;14.30;;;-4.20;99.90;;;;;;4994514;28;20472;-76
2021/01/15 01:53:04;;;;;;;31.55;13.27;;;-4.20;99.90;;;;;;4994393;28;20032;-77
2021/01/15 01:55:30;;;;;;;31.58;14.57;;;-4.20;99.90;;;;;;4994255;28;20034;-76
2021/01/15 01:57:56;;;;;;;32.35;12.68;;;-4.30;99.90;;;;;;4993153;28;20022;-76
2021/01/15 02:00:23;;;;;;;30.10;13.25;;;-4.20;99.90;;;;;;4994335;28;20122;-78
2021/01/15 02:02:49;;;;;;;22.45;10.43;;;-4.30;99.90;;;;;;4993755;28;20022;-75
2021/01/15 02:05:14;;;;;;;26.20;11.65;;;-4.30;99.90;;;;;;4994183;28;20027;-77
2021/01/15 02:07:41;;;;;;;28.90;12.60;;;-4.30;99.90;;;;;;4994368;28;20027;-76
2021/01/15 02:10:19;;;;;;;23.35;11.55;;;-4.30;99.90;;;;;;4992923;28;20034;-76
2021/01/15 02:12:59;;;;;;;26.55;13.48;;;-4.30;99.90;;;;;;4994510;28;20029;-76
2021/01/15 02:15:30;;;;;;;29.00;12.18;;;-4.30;99.90;;;;;;4992782;28;20081;-76
2021/01/15 02:18:08;;;;;;;24.73;12.18;;;-4.30;99.90;;;;;;4993219;28;20023;-75
2021/01/15 02:21:11;;;;;;;27.88;12.43;;;-4.30;99.90;;;;;;4993534;28;20026;-75
2021/01/15 02:23:41;;;;;;;25.88;11.48;;;-4.30;99.90;;;;;;4993996;28;20026;-75
2021/01/15 02:26:44;;;;;;;28.33;12.35;;;-4.30;99.90;;;;;;4994307;28;20437;-75
2021/01/15 02:29:16;;;;;;;23.50;11.25;;;-4.30;99.90;;;;;;4993861;28;20018;-76
2021/01/15 02:31:45;;;;;;;29.02;11.63;;;-4.30;99.90;;;;;;4993902;28;20023;-76
2021/01/15 02:34:38;;;;;;;27.30;12.45;;;-4.20;99.90;;;;;;4993891;28;20046;-75
2021/01/15 02:37:17;;;;;;;27.30;11.48;;;-4.20;99.90;;;;;;4992804;28;20035;-76
2021/01/15 02:39:49;;;;;;;24.80;11.90;;;-4.10;99.90;;;;;;4993771;28;20026;-76
2021/01/15 02:42:16;;;;;;;24.27;11.80;;;-4.20;99.90;;;;;;4993169;28;20054;-76
2021/01/15 02:44:46;;;;;;;34.47;14.18;;;-4.10;99.90;;;;;;4992635;28;20289;-76
2021/01/15 02:47:51;;;;;;;27.63;13.00;;;-4.10;99.90;;;;;;4992629;28;20029;-76
2021/01/15 02:50:21;;;;;;;30.17;12.35;;;-4.10;99.90;;;;;;4990918;28;20039;-76
2021/01/15 02:52:47;;;;;;;37.42;14.20;;;-4.20;99.90;;;;;;4993697;28;20021;-76
2021/01/15 02:55:14;;;;;;;29.70;12.93;;;-4.20;99.90;;;;;;4993209;28;20113;-77
2021/01/15 02:57:40;;;;;;;49.75;19.95;;;-4.20;99.90;;;;;;4993647;28;20547;-79
2021/01/15 03:00:09;;;;;;;34.60;14.60;;;-4.20;99.90;;;;;;4993192;28;20050;-80
2021/01/15 03:03:04;;;;;;;34.78;14.60;;;-4.20;99.90;;;;;;4993182;28;20030;-78
2021/01/15 03:05:43;;;;;;;30.20;13.05;;;-4.20;99.90;;;;;;4993422;28;20026;-78
2021/01/15 03:08:09;;;;;;;40.67;15.93;;;-4.20;99.90;;;;;;4993362;28;20034;-78
2021/01/15 03:10:37;;;;;;;32.70;15.25;;;-4.20;99.90;;;;;;4993355;28;20026;-77
2021/01/15 03:13:06;;;;;;;33.80;11.98;;;-4.20;99.90;;;;;;4993189;28;20049;-77
2021/01/15 03:15:35;;;;;;;31.05;12.57;;;-4.30;99.90;;;;;;4993280;28;20027;-77
2021/01/15 03:18:01;;;;;;;26.80;12.10;;;-4.30;99.90;;;;;;4993266;28;20046;-77
2021/01/15 03:20:27;;;;;;;39.20;16.23;;;-4.20;99.90;;;;;;4993243;28;20369;-78
2021/01/15 03:22:54;;;;;;;29.52;12.07;;;-4.20;99.90;;;;;;4993194;28;20364;-77
2021/01/15 03:25:20;;;;;;;26.05;12.32;;;-4.20;99.90;;;;;;4993042;28;20067;-79
2021/01/15 03:27:51;;;;;;;23.58;11.90;;;-4.20;99.90;;;;;;4993005;28;20029;-79
2021/01/15 03:30:25;;;;;;;28.13;11.27;;;-4.30;99.90;;;;;;4992881;28;20023;-79
2021/01/15 03:32:59;;;;;;;32.35;12.18;;;-4.30;99.90;;;;;;4993108;28;20018;-77
2021/01/15 03:35:25;;;;;;;27.85;12.13;;;-4.30;99.90;;;;;;4993008;28;20041;-78
2021/01/15 03:37:54;;;;;;;29.65;11.73;;;-4.30;99.90;;;;;;4993058;28;20036;-77
2021/01/15 03:40:20;;;;;;;62.30;21.30;;;-4.30;99.90;;;;;;4992968;28;20484;-78
2021/01/15 03:42:46;;;;;;;43.47;17.70;;;-4.30;99.90;;;;;;4993186;28;20109;-77
2021/01/15 03:45:13;;;;;;;27.75;14.77;;;-4.20;99.90;;;;;;4992934;28;20026;-79
2021/01/15 03:47:39;;;;;;;31.33;14.40;;;-4.20;99.90;;;;;;4993017;28;20030;-77
2021/01/15 03:50:05;;;;;;;33.55;13.38;;;-4.20;99.90;;;;;;4992860;28;20026;-78
2021/01/15 03:52:31;;;;;;;29.40;13.60;;;-4.20;99.90;;;;;;4992899;28;20045;-78
2021/01/15 03:54:57;;;;;;;35.50;13.60;;;-4.10;99.90;;;;;;4994077;28;20480;-77
2021/01/15 03:57:22;;;;;;;25.67;12.40;;;-4.10;99.90;;;;;;4996417;28;20395;-79
2021/01/15 03:59:48;;;;;;;30.67;13.80;;;-4.10;99.90;;;;;;4996411;28;20507;-77
2021/01/15 04:02:13;;;;;;;29.83;14.88;;;-4.10;99.90;;;;;;4996522;28;20084;-78
2021/01/15 04:04:39;;;;;;;29.70;13.07;;;-4.10;99.90;;;;;;4996491;28;20076;-77
2021/01/15 04:07:05;;;;;;;27.98;13.65;;;-4.10;99.90;;;;;;4996386;28;20049;-78
2021/01/15 04:09:30;;;;;;;34.67;13.30;;;-4.10;99.90;;;;;;4995524;28;20431;-77
2021/01/15 04:11:56;;;;;;;24.33;12.35;;;-4.10;99.90;;;;;;4996427;28;20365;-78
2021/01/15 04:14:23;;;;;;;29.40;13.18;;;-4.10;99.90;;;;;;4996480;28;20415;-77
2021/01/15 04:16:51;;;;;;;34.22;15.70;;;-4.10;99.90;;;;;;4996353;28;20041;-77
2021/01/15 04:19:17;;;;;;;26.10;12.30;;;-4.10;99.90;;;;;;4996188;28;20026;-77
2021/01/15 04:21:44;;;;;;;32.35;14.48;;;-4.20;99.90;;;;;;4995229;28;20050;-78
2021/01/15 04:24:10;;;;;;;30.70;13.15;;;-4.20;99.90;;;;;;4996212;28;20030;-76
2021/01/15 04:26:35;;;;;;;40.05;16.70;;;-4.20;99.90;;;;;;4996240;28;20506;-76
2021/01/15 04:29:01;;;;;;;46.85;18.77;;;-4.20;99.90;;;;;;4996122;28;20041;-75
2021/01/15 04:31:27;;;;;;;38.20;14.45;;;-4.20;99.90;;;;;;4995994;28;20027;-78
2021/01/15 04:33:52;;;;;;;42.20;15.93;;;-4.20;99.90;;;;;;4995918;28;20511;-76
2021/01/15 04:36:18;;;;;;;24.65;12.75;;;-4.20;99.90;;;;;;4995999;28;20023;-77
2021/01/15 04:38:47;;;;;;;38.92;15.00;;;-4.20;99.90;;;;;;4995799;28;20029;-77
2021/01/15 04:41:22;;;;;;;27.08;14.23;;;-4.20;99.90;;;;;;4995706;28;20110;-77
2021/01/15 04:43:53;;;;;;;27.63;12.55;;;-4.20;99.90;;;;;;4995778;28;20022;-78
2021/01/15 04:46:21;;;;;;;27.05;13.02;;;-4.20;99.90;;;;;;4994395;28;20037;-78
2021/01/15 04:48:49;;;;;;;28.80;13.02;;;-4.20;99.90;;;;;;4995716;28;20018;-78
2021/01/15 04:51:19;;;;;;;34.78;14.68;;;-4.30;99.90;;;;;;4995616;28;20046;-78
2021/01/15 04:53:55;;;;;;;157.18;63.03;;;-4.20;99.90;;;;;;4995344;28;20392;-77
2021/01/15 04:56:30;;;;;;;293.88;112.57;;;-4.30;99.90;;;;;;4995324;28;20109;-78
2021/01/15 04:59:02;;;;;;;261.48;95.45;;;-4.20;99.90;;;;;;4995421;28;20395;-78
2021/01/15 05:01:42;;;;;;;207.02;77.28;;;-4.30;99.90;;;;;;4995041;28;20485;-79
2021/01/15 05:04:12;;;;;;;274.17;103.55;;;-4.20;99.90;;;;;;4995318;28;20015;-78
2021/01/15 05:06:46;;;;;;;54.25;22.70;;;-4.20;99.90;;;;;;4995099;28;20026;-78
2021/01/15 05:09:14;;;;;;;33.83;13.02;;;-4.30;99.90;;;;;;4995136;28;20022;-77
2021/01/15 05:11:42;;;;;;;35.05;14.48;;;-4.40;99.90;;;;;;4995348;28;20161;-78
2021/01/15 05:14:18;;;;;;;38.28;16.30;;;-4.50;99.90;;;;;;4995387;28;20045;-77
2021/01/15 05:16:46;;;;;;;60.05;26.33;;;-4.70;99.90;;;;;;4995727;28;20088;-76
2021/01/15 05:19:12;;;;;;;22.50;12.38;;;-4.80;99.90;;;;;;4995214;28;20027;-76
2021/01/15 05:21:39;;;;;;;17.58;9.43;;;-5.00;99.90;;;;;;4995186;28;20029;-77
2021/01/15 05:24:06;;;;;;;25.92;12.25;;;-5.20;99.90;;;;;;4999685;28;20028;-77
2021/01/15 05:26:39;;;;;;;28.63;13.27;;;-5.30;99.90;;;;;;5014391;28;20026;-77
2021/01/15 05:29:07;;;;;;;22.83;12.27;;;-5.40;99.90;;;;;;5014106;28;20140;-79
2021/01/15 05:31:55;;;;;;;22.38;12.23;;;-5.40;99.90;;;;;;5013641;28;20360;-79
2021/01/15 05:34:25;;;;;;;26.25;11.90;;;-5.40;99.90;;;;;;5012553;28;20176;-79
2021/01/15 05:36:51;;;;;;;34.55;14.77;;;-5.40;99.90;;;;;;5013844;28;20022;-79
2021/01/15 05:39:25;;;;;;;37.13;18.42;;;-5.30;99.90;;;;;;5011105;28;20138;-78
2021/01/15 05:41:59;;;;;;;35.83;15.40;;;-5.30;99.90;;;;;;5013887;28;20025;-78
2021/01/15 05:44:28;;;;;;;59.53;25.85;;;-5.40;99.90;;;;;;5014329;28;20048;-79
2021/01/15 05:46:55;;;;;;;44.40;16.95;;;-5.30;99.90;;;;;;5013384;28;20050;-79
2021/01/15 05:49:20;;;;;;;54.33;22.95;;;-5.40;99.90;;;;;;5013804;28;20058;-78
2021/01/15 05:51:46;;;;;;;42.27;18.63;;;-5.40;99.90;;;;;;5012807;28;20053;-80
2021/01/15 05:54:14;;;;;;;24.60;10.35;;;-5.50;99.90;;;;;;5013365;28;20038;-78
2021/01/15 05:56:45;;;;;;;28.07;12.37;;;-5.60;99.90;;;;;;5012301;28;20053;-79
2021/01/15 05:59:11;;;;;;;24.98;11.10;;;-5.70;99.90;;;;;;5013420;28;20045;-79
2021/01/15 06:01:55;;;;;;;21.33;10.35;;;-5.70;99.90;;;;;;5013438;28;20467;-79
2021/01/15 06:04:33;;;;;;;26.97;15.67;;;-5.80;99.90;;;;;;5013626;28;20093;-79
2021/01/15 06:07:15;;;;;;;32.90;13.20;;;-5.90;99.90;;;;;;5012909;28;20094;-79
2021/01/15 06:09:43;;;;;;;24.70;11.35;;;-5.90;99.90;;;;;;5013931;28;20030;-79
2021/01/15 06:12:14;;;;;;;36.97;16.15;;;-5.90;99.90;;;;;;5013874;28;20026;-79
2021/01/15 06:14:49;;;;;;;24.38;10.90;;;-5.90;99.90;;;;;;5012139;28;20414;-79
2021/01/15 06:17:17;;;;;;;19.97;8.57;;;-6.10;99.90;;;;;;5012674;28;20018;-79
2021/01/15 06:19:50;;;;;;;20.77;11.70;;;-6.10;99.90;;;;;;5012416;28;20022;-78
2021/01/15 06:22:43;;;;;;;41.08;17.95;;;-6.10;99.90;;;;;;5012433;28;20060;-79
2021/01/15 06:25:17;;;;;;;31.63;12.82;;;-6.00;99.90;;;;;;5011935;28;20033;-79
2021/01/15 06:27:43;;;;;;;27.37;14.10;;;-6.10;99.90;;;;;;4993137;28;20085;-78
2021/01/15 06:30:16;;;;;;;37.10;15.57;;;-6.10;99.90;;;;;;4992737;28;20030;-78
2021/01/15 06:32:43;;;;;;;26.02;9.75;;;-6.10;99.90;;;;;;4993748;28;20022;-78
2021/01/15 06:35:22;;;;;;;22.43;9.10;;;-6.20;99.90;;;;;;4992145;28;20038;-78
2021/01/15 06:38:09;;;;;;;17.87;7.87;;;-6.20;99.90;;;;;;4992946;28;20026;-78
2021/01/15 06:40:51;;;;;;;23.83;10.43;;;-6.30;99.90;;;;;;4993620;28;20034;-78
2021/01/15 06:43:17;;;;;;;16.60;7.63;;;-6.40;99.90;;;;;;4993521;28;20030;-78
2021/01/15 06:45:45;;;;;;;14.70;7.77;;;-6.50;99.90;;;;;;4990804;28;20269;-78
2021/01/15 06:48:17;;;;;;;27.83;11.70;;;-6.50;99.90;;;;;;4993689;28;20026;-78
2021/01/15 06:50:44;;;;;;;;;;;-6.40;99.90;;;;;;4990516;28;20392;-78
2021/01/15 06:53:33;;;;;;;55.87;20.90;;;-6.50;99.90;;;;;;4992775;28;19906;-79
2021/01/15 06:56:01;;;;;;;20.17;10.67;;;-6.60;99.90;;;;;;4992884;28;20061;-78
2021/01/15 06:58:28;;;;;;;22.93;10.13;;;-6.70;99.90;;;;;;4992720;28;20161;-78
2021/01/15 07:01:22;;;;;;;17.07;9.07;;;-6.70;99.90;;;;;;4991927;28;20022;-78
2021/01/15 07:03:53;;;;;;;21.47;9.60;;;-6.80;99.90;;;;;;4991465;28;20038;-78
2021/01/15 07:06:32;;;;;;;19.00;8.80;;;-6.80;99.90;;;;;;4991502;28;20043;-78
2021/01/15 07:09:03;;;;;;;21.97;9.93;;;-6.80;99.90;;;;;;4992172;28;20377;-78
2021/01/15 07:11:29;;;;;;;26.63;11.27;;;-6.80;99.90;;;;;;4993925;28;20026;-78
2021/01/15 07:14:00;;;;;;;18.60;11.17;;;-6.90;99.90;;;;;;4991203;28;20038;-78
2021/01/15 07:16:32;;;;;;;21.23;10.00;;;-6.90;99.90;;;;;;4992188;28;20026;-78
2021/01/15 07:19:14;;;;;;;33.70;12.87;;;-6.80;99.90;;;;;;5011336;28;20023;-78
2021/01/15 07:21:55;;;;;;;14.65;8.73;;;-6.80;99.90;;;;;;4989868;28;20076;-78
2021/01/15 07:24:28;;;;;;;19.93;7.20;;;-6.80;99.90;;;;;;4992563;28;20480;-80
2021/01/15 07:26:54;;;;;;;23.80;10.73;;;-6.90;99.90;;;;;;4992560;28;20432;-79
2021/01/15 07:29:21;;;;;;;21.27;9.47;;;-6.90;99.90;;;;;;4994078;28;20468;-79
2021/01/15 07:31:52;;;;;;;35.63;16.57;;;-7.00;99.90;;;;;;4996361;28;20046;-80
2021/01/15 07:34:22;;;;;;;66.73;24.93;;;-7.00;99.90;;;;;;5011462;28;20038;-79
2021/01/15 07:36:49;;;;;;;40.23;14.50;;;-7.10;99.90;;;;;;4996179;28;20038;-79
2021/01/15 07:39:17;;;;;;;30.57;14.43;;;-7.10;99.90;;;;;;4998710;28;20101;-78
2021/01/15 07:41:48;;;;;;;24.67;9.70;;;-7.10;99.90;;;;;;4995466;28;20502;-79
2021/01/15 07:44:23;;;;;;;24.63;13.37;;;-7.20;99.90;;;;;;4997574;28;20014;-79
2021/01/15 07:46:59;;;;;;;21.23;8.80;;;-7.10;99.90;;;;;;4997731;28;20041;-79
2021/01/15 07:49:25;;;;;;;23.60;11.43;;;-7.10;99.90;;;;;;4999547;28;20057;-79
2021/01/15 07:52:07;;;;;;;16.57;8.93;;;-7.00;99.90;;;;;;4996337;28;20076;-79
2021/01/15 07:54:49;;;;;;;20.27;10.43;;;-6.80;99.90;;;;;;4995408;28;20042;-78
2021/01/15 07:57:19;;;;;;;33.13;14.33;;;-6.70;99.90;;;;;;4995597;28;20507;-78
2021/01/15 08:00:08;;;;;;;18.23;8.40;;;-6.40;99.90;;;;;;4993099;28;20117;-78
2021/01/15 08:02:33;;;;;;;16.00;7.87;;;-6.50;99.90;;;;;;4995974;28;20027;-78
2021/01/15 08:05:06;;;;;;;17.60;9.13;;;-6.40;99.60;;;;;;4992138;28;20038;-79
2021/01/15 08:07:33;;;;;;;17.17;8.80;;;-6.60;99.90;;;;;;4995563;28;20034;-78
2021/01/15 08:09:59;;;;;;;36.00;18.00;;;-6.60;99.80;;;;;;4994224;28;20490;-78
2021/01/15 08:12:25;;;;;;;53.13;19.07;;;-6.40;99.40;;;;;;4995439;28;20033;-77
2021/01/15 08:14:51;;;;;;;78.37;27.90;;;-6.50;97.50;;;;;;4996072;28;20042;-80
2021/01/15 08:17:26;;;;;;;93.03;36.93;;;-6.40;96.40;;;;;;4996841;28;20053;-79
2021/01/15 08:19:52;;;;;;;65.97;26.00;;;-6.40;94.40;;;;;;5013398;28;20025;-78
2021/01/15 08:22:20;;;;;;;63.10;21.63;;;-6.30;92.80;;;;;;5015162;28;20480;-80
2021/01/15 08:24:50;;;;;;;59.83;21.00;;;-6.20;91.00;;;;;;5007439;28;20018;-79
2021/01/15 08:27:20;;;;;;;37.13;15.47;;;-6.00;88.40;;;;;;4996038;28;20392;-80
2021/01/15 08:29:46;;;;;;;22.43;7.13;;;-5.70;87.00;;;;;;4994253;28;20118;-78
2021/01/15 08:32:13;;;;;;;17.30;9.90;;;-5.70;82.20;;;;;;4993220;28;20113;-79
2021/01/15 08:34:39;;;;;;;14.77;8.53;;;-5.50;83.00;;;;;;4993991;28;20042;-78
2021/01/15 08:37:10;;;;;;;19.40;9.60;;;-5.30;81.70;;;;;;4994603;28;20019;-79
2021/01/15 08:39:55;;;;;;;16.37;9.57;;;-5.00;80.20;;;;;;4995955;28;20077;-78
2021/01/15 08:42:21;;;;;;;15.48;7.90;;;-4.80;79.20;;;;;;4995373;28;20100;-79
2021/01/15 08:44:48;;;;;;;16.33;7.65;;;-4.60;79.10;;;;;;4995182;28;20026;-78
2021/01/15 08:47:17;;;;;;;20.35;8.90;;;-4.20;76.10;;;;;;4994725;28;20019;-77
2021/01/15 08:49:55;;;;;;;12.73;7.45;;;-4.00;73.10;;;;;;4992924;28;20027;-77
2021/01/15 08:52:23;;;;;;;17.40;8.43;;;-3.70;70.30;;;;;;4992057;28;20380;-77
2021/01/15 08:54:51;;;;;;;18.25;8.45;;;-3.50;68.00;;;;;;4992033;28;20038;-78
2021/01/15 08:57:20;;;;;;;17.70;8.80;;;-3.40;67.00;;;;;;4989967;28;20178;-77
2021/01/15 08:59:45;;;;;;;21.65;10.23;;;-3.60;68.00;;;;;;4992405;28;20029;-77
2021/01/15 09:02:13;;;;;;;22.55;9.77;;;-3.70;67.90;;;;;;5004580;28;20022;-79
2021/01/15 09:04:43;;;;;;;19.20;9.57;;;-3.80;66.50;;;;;;4988521;28;20062;-77
2021/01/15 09:07:09;;;;;;;35.28;15.93;;;-3.90;68.20;;;;;;4987936;28;20045;-77
2021/01/15 09:09:36;;;;;;;48.72;19.35;;;-4.00;68.90;;;;;;4988783;28;20026;-77
2021/01/15 09:12:04;;;;;;;51.55;20.38;;;-3.90;70.80;;;;;;4988761;28;20038;-78
2021/01/15 09:14:33;;;;;;;42.38;20.10;;;-3.60;70.80;;;;;;4989752;28;20446;-77
2021/01/15 09:17:00;;;;;;;24.08;13.57;;;-3.50;68.70;;;;;;4989828;28;20053;-78
2021/01/15 09:19:26;;;;;;;22.48;12.30;;;-3.40;67.30;;;;;;4990711;28;20065;-78
2021/01/15 09:22:00;;;;;;;22.23;9.93;;;-3.30;66.20;;;;;;4991492;28;20061;-78
2021/01/15 09:24:27;;;;;;;20.23;9.63;;;-3.20;64.80;;;;;;4991844;28;20022;-78
2021/01/15 09:27:00;;;;;;;25.20;11.90;;;-3.10;64.40;;;;;;4996416;28;20633;-78
2021/01/15 09:29:27;;;;;;;26.17;12.90;;;-3.00;63.60;;;;;;5011015;28;20537;-77
2021/01/15 09:31:54;;;;;;;22.70;11.32;;;-2.80;63.30;;;;;;5014074;28;20026;-77
2021/01/15 09:34:22;;;;;;;23.33;11.07;;;-2.60;62.70;;;;;;5014361;28;20033;-77
2021/01/15 09:36:49;;;;;;;23.90;7.80;;;-2.50;62.10;;;;;;5014403;28;20034;-78
2021/01/15 09:39:17;;;;;;;14.60;7.30;;;-2.30;61.50;;;;;;5014347;28;20399;-77
2021/01/15 09:41:45;;;;;;;16.63;7.72;;;-2.30;60.40;;;;;;5014297;28;20443;-78
2021/01/15 09:44:12;;;;;;;12.30;6.50;;;-2.10;59.70;;;;;;5014201;28;20498;-77
2021/01/15 09:46:38;;;;;;;16.40;7.30;;;-2.00;59.00;;;;;;5012982;28;20369;-78
2021/01/15 09:49:04;;;;;;;15.93;6.57;;;-1.90;58.40;;;;;;5014103;28;20101;-78
2021/01/15 09:51:30;;;;;;;9.60;5.40;;;-1.90;57.80;;;;;;5014081;28;20101;-78
2021/01/15 09:53:57;;;;;;;10.63;5.63;;;-2.00;56.40;;;;;;5014071;28;20026;-78
2021/01/15 09:56:31;;;;;;;11.82;5.57;;;-2.10;57.40;;;;;;5013317;28;20057;-78
2021/01/15 09:58:58;;;;;;;16.45;7.13;;;-2.10;57.40;;;;;;5014066;28;20026;-77
2021/01/15 10:01:25;;;;;;;10.75;5.97;;;-2.00;56.40;;;;;;5012744;28;20022;-78
2021/01/15 10:03:57;;;;;;;8.23;5.05;;;-2.00;56.00;;;;;;5013840;28;20148;-78
2021/01/15 10:06:23;;;;;;;8.63;6.10;;;-1.90;55.70;;;;;;5013912;28;20025;-78
2021/01/15 10:08:50;;;;;;;9.68;5.30;;;-1.90;54.30;;;;;;5013758;28;20113;-78
2021/01/15 10:11:24;;;;;;;8.80;5.50;;;-1.90;53.60;;;;;;5013842;28;20494;-78
2021/01/15 10:13:52;;;;;;;8.90;5.47;;;-2.00;53.90;;;;;;5013716;28;20033;-78
2021/01/15 10:16:18;;;;;;;11.32;5.03;;;-1.90;53.40;;;;;;5013539;28;20030;-78
2021/01/15 10:18:43;;;;;;;10.10;5.47;;;-1.80;53.00;;;;;;5013572;28;20025;-78
2021/01/15 10:21:09;;;;;;;7.72;4.00;;;-1.80;51.30;;;;;;5013609;28;20049;-80
2021/01/15 10:23:38;;;;;;;9.70;4.57;;;-1.70;50.20;;;;;;5013539;28;20030;-79
2021/01/15 10:26:04;;;;;;;9.68;5.82;;;-1.70;50.80;;;;;;5011587;28;20089;-79
2021/01/15 10:28:30;;;;;;;9.45;4.00;;;-1.60;49.60;;;;;;5013270;28;20029;-78
2021/01/15 10:30:57;;;;;;;9.77;4.85;;;-1.50;49.00;;;;;;5013774;28;20050;-79
2021/01/15 10:33:23;;;;;;;10.98;5.32;;;-1.50;48.20;;;;;;4997982;28;20109;-78
2021/01/15 10:35:52;;;;;;;8.43;4.70;;;-1.40;49.10;;;;;;4994255;28;20181;-77
2021/01/15 10:38:18;;;;;;;20.23;9.07;;;-1.30;47.90;;;;;;5010555;28;20022;-77
2021/01/15 10:40:45;;;;;;;66.07;26.60;;;-1.10;48.40;;;;;;4976543;28;20030;-77
2021/01/15 10:43:11;;;;;;;43.45;20.75;;;-1.20;51.30;;;;;;4992800;28;20467;-78
2021/01/15 10:45:38;;;;;;;25.13;11.13;;;-1.10;52.70;;;;;;4991193;28;20541;-79
2021/01/15 10:48:06;;;;;;;15.80;7.68;;;-1.10;52.70;;;;;;4991840;28;20022;-77
2021/01/15 10:50:31;;;;;;;23.10;10.05;;;-1.30;51.00;;;;;;5007639;28;20026;-78
2021/01/15 10:52:57;;;;;;;14.18;7.50;;;-1.50;50.50;;;;;;4992452;28;20030;-79
2021/01/15 10:55:23;;;;;;;25.88;11.35;;;-1.70;51.60;;;;;;4992603;28;20040;-78
2021/01/15 10:57:49;;;;;;;17.58;10.18;;;-1.80;53.30;;;;;;4993067;28;20042;-79
2021/01/15 11:00:16;;;;;;;18.15;8.40;;;-1.90;54.00;;;;;;4992460;28;20042;-81
2021/01/15 11:02:49;;;;;;;11.43;6.72;;;-1.90;54.90;;;;;;4992315;28;20101;-80
2021/01/15 11:05:14;;;;;;;;;;;-1.90;56.20;;;;;;4992638;28;20076;-79
2021/01/15 11:07:41;;;;;;;10.82;6.45;;;-2.00;57.10;;;;;;4992693;28;19909;-79
2021/01/15 11:10:07;;;;;;;14.52;6.97;;;-2.10;58.00;;;;;;4992352;28;20019;-80
2021/01/15 11:12:33;;;;;;;19.90;10.23;;;-2.10;58.90;;;;;;4991946;28;20053;-80
2021/01/15 11:14:59;;;;;;;34.47;15.02;;;-2.10;59.10;;;;;;4994885;28;20504;-81
2021/01/15 11:17:25;;;;;;;22.50;10.38;;;-2.20;59.80;;;;;;5004541;28;20025;-79
2021/01/15 11:19:50;;;;;;;38.10;18.30;;;-2.30;60.90;;;;;;5015226;28;20476;-79
2021/01/15 11:22:16;;;;;;;22.30;12.50;;;-2.30;61.50;;;;;;4999601;28;20110;-80
2021/01/15 11:24:42;;;;;;;28.10;11.98;;;-2.40;59.50;;;;;;4989922;28;20105;-79
2021/01/15 11:27:08;;;;;;;13.68;10.10;;;-2.50;58.80;;;;;;4991665;28;20014;-79
2021/01/15 11:29:33;;;;;;;31.63;15.10;;;-2.50;59.50;;;;;;4990464;28;20088;-80
2021/01/15 11:31:59;;;;;;;34.13;13.10;;;-2.70;60.10;;;;;;4994636;28;20526;-81
2021/01/15 11:34:25;;;;;;;38.72;18.10;;;-2.70;61.20;;;;;;4991786;28;20396;-80
2021/01/15 11:36:51;;;;;;;43.42;18.30;;;-2.60;62.40;;;;;;4992987;28;20022;-81
2021/01/15 11:39:17;;;;;;;50.53;21.02;;;-2.50;62.30;;;;;;5006036;28;20029;-79
2021/01/15 11:41:43;;;;;;;43.08;18.02;;;-2.40;63.00;;;;;;4990891;28;20029;-80
2021/01/15 11:44:09;;;;;;;33.47;16.08;;;-2.40;61.60;;;;;;4991090;28;20054;-80
2021/01/15 11:46:36;;;;;;;28.65;13.55;;;-2.60;59.90;;;;;;4992013;28;20034;-81
2021/01/15 11:49:03;;;;;;;38.08;15.55;;;-2.70;58.10;;;;;;4991170;28;20118;-80
2021/01/15 11:51:29;;;;;;;32.28;16.20;;;-2.70;58.20;;;;;;4992036;28;20247;-81
2021/01/15 11:53:55;;;;;;;41.38;16.25;;;-2.80;58.30;;;;;;4996646;28;20042;-78
2021/01/15 11:56:21;;;;;;;36.78;14.93;;;-2.80;58.70;;;;;;5008500;28;20036;-79
2021/01/15 11:58:47;;;;;;;41.30;16.55;;;-2.80;58.40;;;;;;4992241;28;20034;-81
2021/01/15 12:01:15;;;;;;;45.42;19.45;;;-2.80;58.70;;;;;;4991803;28;20073;-80
2021/01/15 12:03:41;;;;;;;39.28;18.42;;;-2.80;59.60;;;;;;4990664;28;20041;-80
2021/01/15 12:06:07;;;;;;;35.97;16.35;;;-2.60;60.00;;;;;;4991857;28;20036;-81
2021/01/15 12:08:33;;;;;;;38.50;16.67;;;-2.70;60.80;;;;;;4991342;28;20038;-81
2021/01/15 12:11:02;;;;;;;33.30;15.10;;;-2.70;62.20;;;;;;4988646;28;20103;-81
2021/01/15 12:13:28;;;;;;;25.00;13.38;;;-2.80;63.00;;;;;;4989308;28;20018;-82
2021/01/15 12:15:56;;;;;;;37.75;14.05;;;-2.90;62.20;;;;;;4990171;28;20014;-81
2021/01/15 12:18:22;;;;;;;33.65;11.55;;;-3.00;62.40;;;;;;4990858;28;20046;-81
2021/01/15 12:20:49;;;;;;;23.77;12.32;;;-2.90;62.00;;;;;;4995924;28;20031;-80
2021/01/15 12:23:15;;;;;;;26.55;11.85;;;-3.10;62.60;;;;;;4993282;28;21533;-80
2021/01/15 12:25:41;;;;;;;26.05;12.07;;;-3.10;59.70;;;;;;4992926;28;20041;-82
2021/01/15 12:28:15;;;;;;;31.48;12.25;;;-3.10;59.30;;;;;;4993006;28;20033;-79
2021/01/15 12:30:41;;;;;;;23.40;11.40;;;-3.20;59.10;;;;;;4989097;28;20113;-78
2021/01/15 12:33:17;;;;;;;30.67;11.65;;;-3.30;59.50;;;;;;4991460;28;20069;-79
2021/01/15 12:35:44;;;;;;;24.80;13.35;;;-3.40;59.90;;;;;;4993237;28;20487;-79
2021/01/15 12:38:15;;;;;;;31.45;13.75;;;-3.40;59.80;;;;;;4994146;28;20072;-78
2021/01/15 12:40:42;;;;;;;26.30;11.90;;;-3.40;60.20;;;;;;4991642;28;20018;-79